Time;durP1;ratioP1;P1;durP2;ratioP2;P2;SDS_P1;SDS_P2;PMS_P1;PMS_P2;Temp;Humidity;BMP_temperature;BMP_pressure;BME280_temperature;BME280_humidity;BME280_pressure;Samples;Min_cycle;Max_cycle;Signal;HPM_P1;HPM_P2
2022/03/08 00:21:58;;;;;;;11.30;9.88;;;;;;;;;;4377319;28;20475;-68
2022/03/08 00:24:24;;;;;;;10.60;9.45;;;;;;;;;;4276276;33;20206;-68
2022/03/08 00:26:51;;;;;;;13.57;10.65;;;;;;;;;;4272285;33;20104;-66
2022/03/08 00:29:17;;;;;;;12.65;10.98;;;;;;;;;;4274432;33;20098;-68
2022/03/08 00:31:43;;;;;;;11.98;10.43;;;;;;;;;;4276330;33;20124;-67
2022/03/08 00:34:09;;;;;;;14.35;10.23;;;;;;;;;;4272579;33;20524;-68
2022/03/08 00:36:36;;;;;;;13.60;11.02;;;;;;;;;;4276249;33;20524;-68
2022/03/08 00:39:03;;;;;;;12.77;10.93;;;;;;;;;;4276067;33;20120;-68
2022/03/08 00:41:29;;;;;;;12.50;10.52;;;;;;;;;;4275921;33;20096;-64
2022/03/08 00:43:55;;;;;;;16.33;11.82;;;;;;;;;;4275877;33;20126;-64
2022/03/08 00:46:21;;;;;;;13.38;11.32;;;;;;;;;;4275777;33;20451;-64
2022/03/08 00:48:47;;;;;;;13.27;11.85;;;;;;;;;;4275545;33;20475;-63
2022/03/08 00:51:13;;;;;;;13.38;11.57;;;;;;;;;;4275766;33;20195;-67
2022/03/08 00:53:39;;;;;;;14.35;11.60;;;;;;;;;;4275821;33;20131;-68
2022/03/08 00:56:05;;;;;;;14.00;10.40;;;;;;;;;;4275898;33;20131;-67
2022/03/08 00:58:31;;;;;;;12.35;10.27;;;;;;;;;;4276037;33;20127;-67
2022/03/08 01:00:57;;;;;;;14.73;11.73;;;;;;;;;;4275518;33;20123;-68
2022/03/08 01:03:23;;;;;;;17.23;10.63;;;;;;;;;;4275820;33;20171;-67
2022/03/08 01:05:49;;;;;;;13.07;11.38;;;;;;;;;;4275639;33;20108;-68
2022/03/08 01:08:15;;;;;;;14.38;11.18;;;;;;;;;;4274583;33;20122;-68
2022/03/08 01:10:41;;;;;;;13.62;11.20;;;;;;;;;;4275597;33;20129;-67
2022/03/08 01:13:07;;;;;;;11.95;10.65;;;;;;;;;;4275684;33;20142;-68
2022/03/08 01:15:34;;;;;;;11.65;10.43;;;;;;;;;;4275479;33;20459;-67
2022/03/08 01:18:00;;;;;;;12.60;10.65;;;;;;;;;;4275661;33;20219;-66
2022/03/08 01:20:27;;;;;;;15.18;11.15;;;;;;;;;;4275814;33;20198;-66
2022/03/08 01:22:54;;;;;;;14.10;10.80;;;;;;;;;;4275739;33;20108;-66
2022/03/08 01:25:20;;;;;;;12.10;10.48;;;;;;;;;;4275764;33;20175;-66
2022/03/08 01:27:47;;;;;;;15.15;11.48;;;;;;;;;;4275603;33;20096;-66
2022/03/08 01:30:14;;;;;;;14.43;10.95;;;;;;;;;;4275464;33;20135;-66
2022/03/08 01:32:41;;;;;;;13.13;10.82;;;;;;;;;;4275579;33;20432;-66
2022/03/08 01:35:08;;;;;;;12.65;11.18;;;;;;;;;;4275428;33;20100;-67
2022/03/08 01:37:34;;;;;;;14.43;12.27;;;;;;;;;;4275696;33;20129;-66
2022/03/08 01:40:00;;;;;;;13.05;11.50;;;;;;;;;;4275540;33;20111;-66
2022/03/08 01:42:26;;;;;;;12.50;11.20;;;;;;;;;;4275664;33;20130;-66
2022/03/08 01:44:52;;;;;;;15.02;11.50;;;;;;;;;;4275270;33;20112;-66
2022/03/08 01:47:21;;;;;;;14.77;12.00;;;;;;;;;;4275365;33;20112;-68
2022/03/08 01:49:49;;;;;;;14.70;11.15;;;;;;;;;;4275335;33;20471;-68
2022/03/08 01:52:16;;;;;;;14.07;12.68;;;;;;;;;;4275492;33;20127;-68
2022/03/08 01:54:43;;;;;;;13.30;11.77;;;;;;;;;;4275410;33;20112;-68
2022/03/08 01:57:09;;;;;;;12.95;11.55;;;;;;;;;;4275287;33;20119;-68
2022/03/08 01:59:35;;;;;;;15.32;12.90;;;;;;;;;;4274847;33;20119;-68
2022/03/08 02:02:02;;;;;;;14.93;11.88;;;;;;;;;;4274818;33;20116;-68
2022/03/08 02:04:28;;;;;;;14.60;12.02;;;;;;;;;;4275203;33;20096;-68
2022/03/08 02:06:54;;;;;;;12.88;11.57;;;;;;;;;;4275190;33;20104;-67
2022/03/08 02:09:21;;;;;;;12.80;11.43;;;;;;;;;;4275068;33;20120;-67
2022/03/08 02:11:47;;;;;;;14.80;11.95;;;;;;;;;;4275356;33;20128;-67
2022/03/08 02:14:17;;;;;;;12.07;10.88;;;;;;;;;;4275144;33;20096;-67
2022/03/08 02:16:43;;;;;;;13.38;11.57;;;;;;;;;;4273024;33;20135;-68
2022/03/08 02:19:15;;;;;;;13.88;11.98;;;;;;;;;;4275213;33;20128;-67
2022/03/08 02:21:43;;;;;;;14.70;12.00;;;;;;;;;;4274938;33;20112;-68
2022/03/08 02:24:09;;;;;;;14.18;11.77;;;;;;;;;;4274798;33;20119;-67
2022/03/08 02:26:36;;;;;;;15.73;12.75;;;;;;;;;;4275186;33;20108;-67
2022/03/08 02:29:04;;;;;;;14.25;12.20;;;;;;;;;;4273577;33;20439;-68
2022/03/08 02:31:30;;;;;;;13.82;12.23;;;;;;;;;;4274931;33;20523;-67
2022/03/08 02:33:56;;;;;;;14.82;12.63;;;;;;;;;;4274895;33;20480;-67
2022/03/08 02:36:22;;;;;;;13.82;12.27;;;;;;;;;;4274862;33;20207;-66
2022/03/08 02:38:49;;;;;;;15.10;12.88;;;;;;;;;;4274952;33;20118;-67
2022/03/08 02:41:15;;;;;;;14.60;12.02;;;;;;;;;;4275034;33;20100;-65
2022/03/08 02:43:41;;;;;;;15.70;12.37;;;;;;;;;;4275100;33;20111;-66
2022/03/08 02:46:07;;;;;;;15.80;12.93;;;;;;;;;;4274936;33;20122;-66
2022/03/08 02:48:34;;;;;;;15.30;12.35;;;;;;;;;;4275034;33;20207;-66
2022/03/08 02:51:00;;;;;;;16.08;12.70;;;;;;;;;;4274718;33;20147;-66
2022/03/08 02:53:26;;;;;;;14.60;13.10;;;;;;;;;;4275014;33;20104;-66
2022/03/08 02:55:52;;;;;;;15.02;12.48;;;;;;;;;;4274629;33;20128;-66
2022/03/08 02:58:18;;;;;;;13.98;12.48;;;;;;;;;;4273308;33;20115;-66
2022/03/08 03:00:45;;;;;;;14.55;12.55;;;;;;;;;;4274658;33;20111;-66
2022/03/08 03:03:11;;;;;;;13.80;12.00;;;;;;;;;;4274742;33;20123;-66
2022/03/08 03:05:37;;;;;;;14.95;12.37;;;;;;;;;;4274571;33;20096;-66
2022/03/08 03:08:04;;;;;;;12.88;11.60;;;;;;;;;;4274526;33;20120;-67
2022/03/08 03:10:30;;;;;;;14.20;12.70;;;;;;;;;;4268858;33;20456;-66
2022/03/08 03:12:57;;;;;;;21.42;12.07;;;;;;;;;;4271078;33;20135;-67
2022/03/08 03:15:24;;;;;;;13.48;11.52;;;;;;;;;;4276588;33;20552;-67
2022/03/08 03:17:50;;;;;;;14.32;12.57;;;;;;;;;;4276552;33;20210;-66
2022/03/08 03:20:18;;;;;;;13.50;12.13;;;;;;;;;;4273152;33;20110;-66
2022/03/08 03:22:44;;;;;;;14.13;11.35;;;;;;;;;;4276483;33;20109;-66
2022/03/08 03:25:11;;;;;;;14.50;12.20;;;;;;;;;;4276712;33;20127;-66
2022/03/08 03:27:38;;;;;;;15.48;11.98;;;;;;;;;;4276604;33;20210;-67
2022/03/08 03:30:07;;;;;;;14.95;11.70;;;;;;;;;;4276584;33;20128;-64
2022/03/08 03:32:33;;;;;;;13.70;11.35;;;;;;;;;;4276819;33;20226;-65
2022/03/08 03:35:00;;;;;;;14.73;10.80;;;;;;;;;;4275054;33;20523;-67
2022/03/08 03:37:26;;;;;;;14.45;10.32;;;;;;;;;;4263598;33;20115;-67
2022/03/08 03:39:53;;;;;;;13.25;10.48;;;;;;;;;;4286830;33;20107;-67
2022/03/08 03:42:19;;;;;;;10.57;9.32;;;;;;;;;;4275110;33;20119;-67
2022/03/08 03:44:45;;;;;;;11.40;10.20;;;;;;;;;;4286880;33;20195;-66
2022/03/08 03:47:11;;;;;;;12.00;10.05;;;;;;;;;;4286968;33;20103;-66
2022/03/08 03:49:37;;;;;;;11.40;10.15;;;;;;;;;;4276331;33;20488;-67
2022/03/08 03:52:04;;;;;;;14.73;11.07;;;;;;;;;;4274888;33;20107;-66
2022/03/08 03:54:30;;;;;;;13.48;10.77;;;;;;;;;;4276298;33;20118;-67
2022/03/08 03:56:56;;;;;;;12.48;11.05;;;;;;;;;;4276210;33;20175;-65
2022/03/08 03:59:22;;;;;;;13.80;10.65;;;;;;;;;;4276289;33;20526;-65
2022/03/08 04:01:48;;;;;;;12.23;10.05;;;;;;;;;;4276171;33;20089;-65
2022/03/08 04:04:14;;;;;;;13.57;11.38;;;;;;;;;;4272938;33;20505;-65
2022/03/08 04:06:40;;;;;;;12.48;10.40;;;;;;;;;;4276288;33;20107;-67
2022/03/08 04:09:06;;;;;;;12.27;10.93;;;;;;;;;;4272756;33;20112;-65
2022/03/08 04:11:32;;;;;;;12.70;10.73;;;;;;;;;;4274976;33;20112;-65
2022/03/08 04:13:59;;;;;;;12.70;11.35;;;;;;;;;;4276249;33;20444;-66
2022/03/08 04:16:25;;;;;;;13.88;11.90;;;;;;;;;;4276362;33;20099;-66
2022/03/08 04:18:51;;;;;;;12.05;10.75;;;;;;;;;;4274803;33;20131;-66
2022/03/08 04:21:17;;;;;;;17.10;12.25;;;;;;;;;;4263178;33;20100;-66
2022/03/08 04:23:43;;;;;;;14.48;11.88;;;;;;;;;;4275392;33;20553;-66
2022/03/08 04:26:09;;;;;;;17.45;11.95;;;;;;;;;;4276023;33;20115;-64
2022/03/08 04:28:35;;;;;;;13.98;11.32;;;;;;;;;;4276281;33;20128;-64
2022/03/08 04:31:01;;;;;;;14.15;11.68;;;;;;;;;;4276208;33;20214;-65
2022/03/08 04:33:27;;;;;;;13.70;10.82;;;;;;;;;;4276116;33;20198;-65
2022/03/08 04:35:53;;;;;;;13.77;11.63;;;;;;;;;;4275398;33;20111;-65
2022/03/08 04:38:19;;;;;;;15.55;12.25;;;;;;;;;;4276439;33;20112;-65
2022/03/08 04:40:45;;;;;;;15.82;12.40;;;;;;;;;;4275093;33;20115;-65
2022/03/08 04:43:11;;;;;;;16.77;12.43;;;;;;;;;;4276194;33;20107;-65
2022/03/08 04:45:37;;;;;;;16.02;11.70;;;;;;;;;;4276111;33;20524;-65
2022/03/08 04:48:04;;;;;;;13.02;11.68;;;;;;;;;;4275800;33;20128;-64
2022/03/08 04:50:30;;;;;;;13.10;11.68;;;;;;;;;;4276006;33;20119;-65
2022/03/08 04:52:56;;;;;;;15.73;12.73;;;;;;;;;;4275827;33;20123;-64
2022/03/08 04:55:22;;;;;;;14.10;11.38;;;;;;;;;;4275774;33;20100;-65
2022/03/08 04:57:48;;;;;;;16.30;12.20;;;;;;;;;;4275727;33;20128;-65
2022/03/08 05:00:14;;;;;;;12.68;11.32;;;;;;;;;;4262364;33;20536;-65
2022/03/08 05:02:42;;;;;;;14.07;11.27;;;;;;;;;;4276016;33;20126;-64
2022/03/08 05:05:09;;;;;;;14.48;11.65;;;;;;;;;;4262414;33;20506;-64
2022/03/08 05:07:36;;;;;;;13.43;11.65;;;;;;;;;;4275659;33;20108;-64
2022/03/08 05:10:12;;;;;;;12.27;10.98;;;;;;;;;;4274554;33;20132;-64
2022/03/08 05:12:39;;;;;;;15.10;11.43;;;;;;;;;;4275759;33;20121;-63
2022/03/08 05:15:06;;;;;;;12.65;11.35;;;;;;;;;;4275607;33;20187;-64
2022/03/08 05:17:32;;;;;;;15.13;11.40;;;;;;;;;;4275686;33;20119;-64
2022/03/08 05:19:58;;;;;;;13.20;11.80;;;;;;;;;;4275445;33;20116;-64
2022/03/08 05:22:24;;;;;;;13.25;11.85;;;;;;;;;;4275820;33;20542;-63
2022/03/08 05:24:50;;;;;;;17.27;13.55;;;;;;;;;;4275337;33;20318;-63
2022/03/08 05:27:16;;;;;;;17.15;13.95;;;;;;;;;;4275700;33;20124;-63
2022/03/08 05:29:42;;;;;;;16.30;14.43;;;;;;;;;;4275726;33;20117;-65
2022/03/08 05:32:08;;;;;;;17.65;13.75;;;;;;;;;;4275469;33;20088;-66
2022/03/08 05:34:34;;;;;;;15.63;13.18;;;;;;;;;;4271784;33;20116;-65
2022/03/08 05:37:00;;;;;;;14.75;13.20;;;;;;;;;;4275231;33;20199;-66
2022/03/08 05:39:27;;;;;;;14.27;12.32;;;;;;;;;;4273037;33;20104;-63
2022/03/08 05:41:52;;;;;;;13.65;11.82;;;;;;;;;;4271202;33;20116;-64
2022/03/08 05:44:19;;;;;;;15.05;13.10;;;;;;;;;;4274677;33;20941;-63
2022/03/08 05:46:45;;;;;;;13.38;11.88;;;;;;;;;;4274313;33;20187;-63
2022/03/08 05:49:11;;;;;;;16.65;12.90;;;;;;;;;;4274150;33;20108;-65
2022/03/08 05:51:38;;;;;;;14.23;12.60;;;;;;;;;;4275446;33;20166;-64
2022/03/08 05:54:03;;;;;;;18.35;12.52;;;;;;;;;;4271214;33;20623;-65
2022/03/08 05:56:29;;;;;;;14.07;11.85;;;;;;;;;;4275293;33;20112;-66
2022/03/08 05:58:55;;;;;;;13.00;11.57;;;;;;;;;;4275086;33;20143;-65
2022/03/08 06:01:21;;;;;;;14.90;12.48;;;;;;;;;;4271594;33;20138;-66
2022/03/08 06:03:47;;;;;;;12.85;11.55;;;;;;;;;;4275294;33;20123;-64
2022/03/08 06:06:13;;;;;;;14.52;12.85;;;;;;;;;;4274234;33;20612;-64
2022/03/08 06:08:39;;;;;;;14.60;12.93;;;;;;;;;;4271343;33;20472;-65
2022/03/08 06:11:05;;;;;;;13.70;12.25;;;;;;;;;;4271356;33;20131;-63
2022/03/08 06:13:31;;;;;;;13.05;11.73;;;;;;;;;;4271956;33;20134;-64
2022/03/08 06:15:57;;;;;;;14.50;12.10;;;;;;;;;;4271976;33;20120;-64
2022/03/08 06:18:24;;;;;;;13.45;11.85;;;;;;;;;;4271929;33;20131;-62
2022/03/08 06:20:50;;;;;;;13.70;11.88;;;;;;;;;;4260608;33;20537;-64
2022/03/08 06:23:16;;;;;;;13.07;11.68;;;;;;;;;;4269662;33;20199;-63
2022/03/08 06:25:43;;;;;;;15.40;12.43;;;;;;;;;;4269933;33;20118;-63
2022/03/08 06:28:09;;;;;;;16.12;12.50;;;;;;;;;;4269439;33;20115;-64
2022/03/08 06:30:35;;;;;;;14.80;13.20;;;;;;;;;;4274290;33;20206;-64
2022/03/08 06:33:01;;;;;;;15.82;13.23;;;;;;;;;;4274989;33;20118;-63
2022/03/08 06:35:27;;;;;;;15.98;13.60;;;;;;;;;;4274144;33;20120;-63
2022/03/08 06:37:53;;;;;;;15.18;13.55;;;;;;;;;;4274713;33;20512;-63
2022/03/08 06:40:19;;;;;;;15.68;13.25;;;;;;;;;;4269155;33;20107;-62
2022/03/08 06:42:45;;;;;;;14.70;13.13;;;;;;;;;;4274755;33;20122;-63
2022/03/08 06:45:12;;;;;;;14.38;12.95;;;;;;;;;;4274812;33;20183;-62
2022/03/08 06:47:40;;;;;;;16.37;13.15;;;;;;;;;;4274356;33;20142;-63
2022/03/08 06:50:07;;;;;;;13.50;11.98;;;;;;;;;;4274811;33;20084;-63
2022/03/08 06:52:34;;;;;;;15.45;12.55;;;;;;;;;;4274715;33;20221;-65
2022/03/08 06:55:00;;;;;;;14.05;12.23;;;;;;;;;;4254956;33;20123;-61
2022/03/08 06:57:26;;;;;;;14.93;12.65;;;;;;;;;;4269983;33;20128;-63
2022/03/08 06:59:52;;;;;;;16.37;12.73;;;;;;;;;;4271303;33;20207;-62
2022/03/08 07:02:18;;;;;;;16.25;13.35;;;;;;;;;;4273729;33;20127;-61
2022/03/08 07:04:44;;;;;;;14.87;12.98;;;;;;;;;;4269761;33;20116;-64
2022/03/08 07:07:10;;;;;;;16.10;13.45;;;;;;;;;;4272990;33;20119;-63
2022/03/08 07:09:36;;;;;;;16.10;13.52;;;;;;;;;;4274266;33;20100;-63
2022/03/08 07:12:02;;;;;;;16.08;13.35;;;;;;;;;;4262332;33;20515;-63
2022/03/08 07:14:28;;;;;;;16.42;13.70;;;;;;;;;;4259955;33;20529;-64
2022/03/08 07:16:54;;;;;;;15.05;13.13;;;;;;;;;;4260151;33;20096;-63
2022/03/08 07:19:20;;;;;;;16.23;13.73;;;;;;;;;;4270104;33;20139;-63
2022/03/08 07:21:46;;;;;;;17.10;14.18;;;;;;;;;;4270405;33;20159;-63
2022/03/08 07:24:13;;;;;;;15.73;13.98;;;;;;;;;;4274051;33;20170;-63
2022/03/08 07:26:39;;;;;;;16.12;14.52;;;;;;;;;;4274113;33;20104;-64
2022/03/08 07:29:05;;;;;;;15.48;13.85;;;;;;;;;;4273762;33;20459;-64
2022/03/08 07:31:32;;;;;;;16.25;14.57;;;;;;;;;;4260627;33;20781;-63
2022/03/08 07:33:58;;;;;;;16.62;14.90;;;;;;;;;;4274003;33;20188;-65
2022/03/08 07:36:24;;;;;;;19.62;15.85;;;;;;;;;;4274080;33;20591;-67
2022/03/08 07:38:50;;;;;;;19.12;15.40;;;;;;;;;;4260932;33;20096;-66
2022/03/08 07:41:16;;;;;;;17.20;15.40;;;;;;;;;;4254778;33;20524;-64
2022/03/08 07:43:42;;;;;;;17.87;14.55;;;;;;;;;;4260567;33;20092;-64
2022/03/08 07:46:09;;;;;;;15.93;14.18;;;;;;;;;;4272035;33;20208;-64
2022/03/08 07:48:35;;;;;;;16.40;14.68;;;;;;;;;;4272718;33;20112;-65
2022/03/08 07:51:02;;;;;;;14.60;13.10;;;;;;;;;;4266980;33;20637;-66
2022/03/08 07:53:28;;;;;;;18.25;14.93;;;;;;;;;;4271941;33;20111;-66
2022/03/08 07:55:54;;;;;;;16.25;14.30;;;;;;;;;;4277182;33;20199;-66
2022/03/08 07:58:20;;;;;;;15.50;13.80;;;;;;;;;;4271706;33;20610;-64
2022/03/08 08:00:46;;;;;;;17.92;14.20;;;;;;;;;;4262769;33;20195;-65
2022/03/08 08:03:12;;;;;;;15.77;13.93;;;;;;;;;;4275868;33;20119;-65
2022/03/08 08:05:39;;;;;;;17.17;14.07;;;;;;;;;;4262393;33;20120;-66
2022/03/08 08:08:06;;;;;;;15.70;13.88;;;;;;;;;;4275346;33;20120;-65
2022/03/08 08:10:32;;;;;;;14.77;12.90;;;;;;;;;;4269525;33;20112;-64
2022/03/08 08:12:59;;;;;;;16.58;14.57;;;;;;;;;;4276007;33;20099;-63
2022/03/08 08:15:25;;;;;;;16.87;14.82;;;;;;;;;;4275811;33;20102;-62
2022/03/08 08:17:51;;;;;;;16.75;14.50;;;;;;;;;;4276006;33;20138;-62
2022/03/08 08:20:18;;;;;;;15.68;13.93;;;;;;;;;;4275823;33;20536;-63
2022/03/08 08:22:44;;;;;;;16.87;14.00;;;;;;;;;;4275840;33;20194;-62
2022/03/08 08:25:13;;;;;;;18.48;14.90;;;;;;;;;;4276116;33;20228;-62
2022/03/08 08:27:39;;;;;;;15.27;13.65;;;;;;;;;;4276143;33;20084;-61
2022/03/08 08:30:10;;;;;;;15.65;13.98;;;;;;;;;;4262305;33;20149;-61
2022/03/08 08:32:36;;;;;;;14.60;13.07;;;;;;;;;;4275845;33;20547;-62
2022/03/08 08:35:03;;;;;;;14.30;12.80;;;;;;;;;;4275769;33;20104;-62
2022/03/08 08:37:29;;;;;;;14.93;13.38;;;;;;;;;;4276068;33;20214;-62
2022/03/08 08:39:55;;;;;;;15.05;12.82;;;;;;;;;;4275422;33;20131;-61
2022/03/08 08:42:21;;;;;;;14.25;12.85;;;;;;;;;;4275794;33;20633;-62
2022/03/08 08:44:47;;;;;;;14.27;12.57;;;;;;;;;;4275622;33;20109;-61
2022/03/08 08:47:13;;;;;;;14.05;12.23;;;;;;;;;;4275604;33;20234;-62
2022/03/08 08:49:39;;;;;;;13.45;12.05;;;;;;;;;;4275062;33;20523;-61
2022/03/08 08:52:06;;;;;;;13.25;11.93;;;;;;;;;;4274761;33;20207;-61
2022/03/08 08:54:32;;;;;;;15.38;13.32;;;;;;;;;;4275028;33;20222;-61
2022/03/08 08:56:57;;;;;;;13.85;12.35;;;;;;;;;;4275020;33;20578;-61
2022/03/08 08:59:23;;;;;;;13.95;12.45;;;;;;;;;;4273093;33;20107;-60
2022/03/08 09:01:50;;;;;;;14.13;12.73;;;;;;;;;;4269684;33;20093;-60
2022/03/08 09:04:16;;;;;;;13.43;11.38;;;;;;;;;;4271558;33;20095;-60
2022/03/08 09:06:42;;;;;;;11.95;10.60;;;;;;;;;;4259206;33;20120;-62
2022/03/08 09:09:09;;;;;;;13.30;11.40;;;;;;;;;;4269325;33;20190;-62
2022/03/08 09:11:36;;;;;;;13.93;12.45;;;;;;;;;;4275499;33;20210;-60
2022/03/08 09:14:02;;;;;;;17.25;11.50;;;;;;;;;;4274825;33;20096;-58
2022/03/08 09:16:29;;;;;;;12.23;10.02;;;;;;;;;;4272396;33;20191;-61
2022/03/08 09:18:55;;;;;;;11.52;10.32;;;;;;;;;;4272563;33;20127;-60
2022/03/08 09:21:21;;;;;;;12.70;11.40;;;;;;;;;;4270058;33;20556;-59
2022/03/08 09:23:47;;;;;;;13.18;11.82;;;;;;;;;;4270958;33;20093;-59
2022/03/08 09:26:13;;;;;;;11.23;9.60;;;;;;;;;;4269141;33;20131;-60
2022/03/08 09:28:39;;;;;;;12.55;10.35;;;;;;;;;;4260931;33;20125;-60
2022/03/08 09:31:05;;;;;;;10.43;9.23;;;;;;;;;;4268498;33;20143;-61
2022/03/08 09:33:31;;;;;;;10.25;9.25;;;;;;;;;;4262433;33;20176;-60
2022/03/08 09:35:57;;;;;;;10.55;8.02;;;;;;;;;;4268752;33;20208;-60
2022/03/08 09:38:23;;;;;;;8.80;7.90;;;;;;;;;;4255134;33;20115;-60
2022/03/08 09:40:51;;;;;;;10.80;9.68;;;;;;;;;;4260931;33;20098;-60
2022/03/08 09:43:18;;;;;;;9.85;8.70;;;;;;;;;;4261013;33;20128;-60
2022/03/08 09:45:44;;;;;;;11.20;8.82;;;;;;;;;;4269868;33;20100;-60
2022/03/08 09:48:10;;;;;;;8.65;7.78;;;;;;;;;;4262391;33;20621;-62
2022/03/08 09:50:36;;;;;;;9.75;8.68;;;;;;;;;;4267590;33;20116;-63
2022/03/08 09:53:03;;;;;;;9.90;8.88;;;;;;;;;;4264776;33;20226;-61
2022/03/08 09:55:29;;;;;;;15.88;13.62;;;;;;;;;;4265244;33;20163;-63
2022/03/08 09:57:55;;;;;;;11.15;9.93;;;;;;;;;;4271740;33;20115;-62
2022/03/08 10:00:26;;;;;;;10.85;9.57;;;;;;;;;;4267663;33;20163;-61
2022/03/08 10:02:53;;;;;;;11.38;9.90;;;;;;;;;;4262609;33;20569;-61
2022/03/08 10:05:27;;;;;;;11.10;9.73;;;;;;;;;;4258918;33;20096;-64
2022/03/08 10:08:10;;;;;;;11.50;9.57;;;;;;;;;;4260690;33;20575;-61
2022/03/08 10:10:58;;;;;;;10.80;9.70;;;;;;;;;;4260618;33;20213;-60
2022/03/08 10:13:28;;;;;;;11.43;10.25;;;;;;;;;;4259282;33;20188;-61
2022/03/08 10:16:24;;;;;;;10.95;9.45;;;;;;;;;;4260451;33;20472;-61
2022/03/08 10:18:54;;;;;;;10.25;9.25;;;;;;;;;;4259078;33;20132;-62
2022/03/08 10:21:25;;;;;;;11.02;9.55;;;;;;;;;;4259418;33;20227;-61
2022/03/08 10:23:52;;;;;;;11.02;8.63;;;;;;;;;;4268693;33;20207;-62
2022/03/08 10:26:19;;;;;;;10.13;9.00;;;;;;;;;;4273416;33;20104;-62
2022/03/08 10:28:50;;;;;;;10.23;8.93;;;;;;;;;;4274663;33;20123;-62
2022/03/08 10:31:16;;;;;;;10.95;8.68;;;;;;;;;;4274650;33;20207;-62
2022/03/08 10:33:43;;;;;;;9.65;8.68;;;;;;;;;;4284653;33;20193;-61
2022/03/08 10:36:21;;;;;;;10.40;8.80;;;;;;;;;;4272921;33;20088;-62
2022/03/08 10:39:09;;;;;;;10.05;8.95;;;;;;;;;;4274493;33;20107;-63
2022/03/08 10:41:45;;;;;;;9.25;8.27;;;;;;;;;;4274541;33;20119;-63
2022/03/08 10:44:12;;;;;;;9.23;8.10;;;;;;;;;;4274227;33;20089;-63
2022/03/08 10:46:38;;;;;;;8.80;7.57;;;;;;;;;;4274489;33;20084;-62
2022/03/08 10:49:22;;;;;;;9.23;8.32;;;;;;;;;;4272205;33;20126;-62
2022/03/08 10:51:58;;;;;;;9.27;8.30;;;;;;;;;;4261064;33;20639;-64
2022/03/08 10:54:24;;;;;;;9.10;8.20;;;;;;;;;;4274224;33;20115;-61
2022/03/08 10:56:50;;;;;;;8.50;7.53;;;;;;;;;;4274414;33;20114;-61
2022/03/08 10:59:18;;;;;;;8.80;7.90;;;;;;;;;;4274145;33;20551;-61
2022/03/08 11:01:44;;;;;;;9.20;8.30;;;;;;;;;;4274249;33;20845;-60
2022/03/08 11:04:21;;;;;;;9.70;8.68;;;;;;;;;;4274209;33;20096;-62
2022/03/08 11:06:50;;;;;;;13.07;11.30;;;;;;;;;;4274427;33;20111;-61
2022/03/08 11:09:18;;;;;;;16.87;15.27;;;;;;;;;;4274261;33;20633;-62
2022/03/08 11:11:45;;;;;;;20.20;18.15;;;;;;;;;;4274222;33;20451;-61
2022/03/08 11:14:11;;;;;;;18.20;16.40;;;;;;;;;;4284220;33;20185;-61
2022/03/08 11:16:38;;;;;;;28.92;26.12;;;;;;;;;;4273726;33;20107;-63
2022/03/08 11:19:05;;;;;;;20.98;18.87;;;;;;;;;;4273960;33;20432;-59
2022/03/08 11:21:33;;;;;;;16.05;13.55;;;;;;;;;;4273138;33;20191;-60
2022/03/08 11:24:01;;;;;;;12.85;11.55;;;;;;;;;;4268710;33;20120;-61
2022/03/08 11:26:27;;;;;;;12.40;11.02;;;;;;;;;;4259917;33;20314;-60
2022/03/08 11:28:53;;;;;;;12.23;10.90;;;;;;;;;;4260004;33;20115;-61
2022/03/08 11:31:22;;;;;;;12.13;10.63;;;;;;;;;;4259941;33;20124;-61
2022/03/08 11:33:58;;;;;;;10.43;9.32;;;;;;;;;;4250874;33;20432;-62
2022/03/08 11:36:34;;;;;;;11.30;9.73;;;;;;;;;;4262498;33;20560;-61
2022/03/08 11:39:21;;;;;;;10.50;9.15;;;;;;;;;;4264497;33;20141;-60
2022/03/08 11:41:53;;;;;;;10.57;9.27;;;;;;;;;;4263783;33;20120;-61
2022/03/08 11:44:26;;;;;;;9.55;8.48;;;;;;;;;;4272039;33;20155;-61
2022/03/08 11:47:04;;;;;;;9.98;9.02;;;;;;;;;;4273257;33;20084;-62
2022/03/08 11:49:55;;;;;;;11.73;10.50;;;;;;;;;;4262947;33;20477;-62
2022/03/08 11:52:36;;;;;;;13.48;10.55;;;;;;;;;;4276440;33;20104;-62
2022/03/08 11:55:06;;;;;;;16.05;12.02;;;;;;;;;;4265368;33;20189;-62
2022/03/08 11:57:47;;;;;;;18.52;13.77;;;;;;;;;;4261927;33;20151;-62
2022/03/08 12:00:16;;;;;;;13.55;11.73;;;;;;;;;;4261463;33;20147;-60
2022/03/08 12:02:47;;;;;;;11.98;10.77;;;;;;;;;;4268074;33;20128;-61
2022/03/08 12:05:45;;;;;;;11.18;9.93;;;;;;;;;;4275815;33;20221;-61
2022/03/08 12:08:29;;;;;;;11.43;10.25;;;;;;;;;;4276054;33;20111;-60
2022/03/08 12:11:03;;;;;;;13.07;11.57;;;;;;;;;;4275930;33;20190;-60
2022/03/08 12:13:40;;;;;;;16.50;13.70;;;;;;;;;;4276112;33;20211;-61
2022/03/08 12:16:06;;;;;;;12.27;10.90;;;;;;;;;;4262506;33;20104;-61
2022/03/08 12:18:39;;;;;;;12.30;10.48;;;;;;;;;;4262711;33;20132;-61
2022/03/08 12:21:17;;;;;;;15.50;11.98;;;;;;;;;;4275572;33;20119;-64
2022/03/08 12:24:09;;;;;;;15.80;12.20;;;;;;;;;;4275006;33;20215;-63
2022/03/08 12:26:40;;;;;;;12.90;11.05;;;;;;;;;;4271748;33;20147;-62
2022/03/08 12:29:21;;;;;;;14.98;11.60;;;;;;;;;;4273569;33;20210;-63
2022/03/08 12:31:56;;;;;;;12.57;10.35;;;;;;;;;;4273658;33;20115;-63
2022/03/08 12:34:47;;;;;;;12.18;10.35;;;;;;;;;;4273764;33;20122;-63
2022/03/08 12:37:28;;;;;;;10.75;9.65;;;;;;;;;;4274008;33;20113;-63
2022/03/08 12:40:08;;;;;;;11.52;10.20;;;;;;;;;;4273627;33;20128;-64
2022/03/08 12:42:58;;;;;;;14.48;11.43;;;;;;;;;;4261757;33;20092;-64
2022/03/08 12:45:38;;;;;;;13.18;11.55;;;;;;;;;;4274913;33;20206;-64
2022/03/08 12:48:11;;;;;;;12.88;10.70;;;;;;;;;;4275671;33;20108;-63
2022/03/08 12:50:42;;;;;;;12.80;10.13;;;;;;;;;;4275757;33;20120;-65
2022/03/08 12:53:09;;;;;;;12.75;11.18;;;;;;;;;;4275933;33;20100;-64
2022/03/08 12:55:44;;;;;;;15.02;12.63;;;;;;;;;;4260251;33;20132;-63
2022/03/08 12:58:16;;;;;;;11.77;10.18;;;;;;;;;;4261409;33;20199;-64
2022/03/08 13:00:54;;;;;;;14.10;10.90;;;;;;;;;;4248126;33;20128;-63
2022/03/08 13:03:24;;;;;;;13.40;11.20;;;;;;;;;;4261332;33;20116;-60
2022/03/08 13:05:52;;;;;;;16.70;11.20;;;;;;;;;;4248012;33;20116;-61
2022/03/08 13:08:19;;;;;;;12.95;11.38;;;;;;;;;;4261209;33;20100;-60
2022/03/08 13:10:55;;;;;;;12.13;10.93;;;;;;;;;;4261061;33;20211;-61
2022/03/08 13:13:22;;;;;;;15.50;11.05;;;;;;;;;;4261178;33;20093;-60
2022/03/08 13:15:49;;;;;;;13.40;10.65;;;;;;;;;;4261056;33;20191;-61
2022/03/08 13:18:26;;;;;;;11.32;9.65;;;;;;;;;;4247916;33;20119;-62
2022/03/08 13:20:53;;;;;;;9.98;8.88;;;;;;;;;;4247796;33;20097;-62
2022/03/08 13:23:22;;;;;;;12.35;9.45;;;;;;;;;;4266255;33;20104;-62
2022/03/08 13:25:50;;;;;;;10.88;9.35;;;;;;;;;;4275260;33;20440;-62
2022/03/08 13:28:16;;;;;;;11.50;9.25;;;;;;;;;;4275342;33;20110;-62
2022/03/08 13:30:47;;;;;;;11.35;10.15;;;;;;;;;;4264095;33;20136;-62
2022/03/08 13:33:14;;;;;;;11.15;8.73;;;;;;;;;;4261063;33;20120;-63
2022/03/08 13:35:55;;;;;;;11.40;10.27;;;;;;;;;;4260914;33;20175;-61
2022/03/08 13:38:25;;;;;;;11.88;10.60;;;;;;;;;;4261001;33;20215;-60
2022/03/08 13:40:52;;;;;;;11.07;9.75;;;;;;;;;;4261221;33;20092;-61
2022/03/08 13:43:19;;;;;;;12.30;9.70;;;;;;;;;;4260942;33;20120;-61
2022/03/08 13:45:46;;;;;;;11.98;10.68;;;;;;;;;;4260674;33;20183;-60
2022/03/08 13:48:17;;;;;;;12.10;10.27;;;;;;;;;;4261005;33;20617;-60
2022/03/08 13:50:46;;;;;;;11.90;10.65;;;;;;;;;;4260723;33;20096;-61
2022/03/08 13:53:13;;;;;;;13.32;10.30;;;;;;;;;;4260773;33;20107;-61
2022/03/08 13:55:41;;;;;;;12.60;10.63;;;;;;;;;;4273988;33;20570;-60
2022/03/08 13:58:18;;;;;;;10.77;9.63;;;;;;;;;;4268670;33;20210;-61
2022/03/08 14:00:45;;;;;;;12.27;10.90;;;;;;;;;;4259753;33;20183;-63
2022/03/08 14:03:13;;;;;;;14.60;11.15;;;;;;;;;;4245288;33;20112;-60
2022/03/08 14:05:58;;;;;;;15.25;10.65;;;;;;;;;;4260342;33;20102;-61
2022/03/08 14:08:34;;;;;;;11.48;9.65;;;;;;;;;;4259443;33;20198;-61
2022/03/08 14:11:10;;;;;;;;;;;;;;;;;;4261045;33;20159;-62
2022/03/08 14:13:47;;;;;;;11.70;10.50;;;;;;;;;;4260868;33;19976;-60
2022/03/08 14:16:13;;;;;;;12.52;10.63;;;;;;;;;;4260592;33;20148;-61
2022/03/08 14:18:48;;;;;;;14.13;10.38;;;;;;;;;;4260582;33;20214;-62
2022/03/08 14:21:38;;;;;;;13.60;10.45;;;;;;;;;;4260453;33;20661;-61
2022/03/08 14:24:14;;;;;;;11.98;10.05;;;;;;;;;;4269803;33;20139;-62
2022/03/08 14:27:00;;;;;;;12.43;11.00;;;;;;;;;;4274793;33;20218;-61
2022/03/08 14:29:27;;;;;;;13.32;10.70;;;;;;;;;;4274793;33;20091;-62
2022/03/08 14:31:53;;;;;;;13.15;11.15;;;;;;;;;;4273291;33;20559;-62
2022/03/08 14:34:21;;;;;;;12.82;10.10;;;;;;;;;;4271729;33;20115;-62
2022/03/08 14:36:52;;;;;;;14.63;11.88;;;;;;;;;;4269151;33;20088;-61
2022/03/08 14:39:35;;;;;;;11.85;10.50;;;;;;;;;;4272788;33;20247;-62
2022/03/08 14:42:01;;;;;;;13.50;11.02;;;;;;;;;;4267688;33;20116;-62
2022/03/08 14:44:30;;;;;;;13.20;10.93;;;;;;;;;;4273887;33;20093;-61
2022/03/08 14:46:57;;;;;;;13.80;10.68;;;;;;;;;;4270729;33;20111;-61
2022/03/08 14:49:23;;;;;;;15.50;12.35;;;;;;;;;;4270186;33;20190;-64